Time;durP1;ratioP1;P1;durP2;ratioP2;P2;SDS_P1;SDS_P2;PMS_P1;PMS_P2;Temp;Humidity;BMP_temperature;BMP_pressure;BME280_temperature;BME280_humidity;BME280_pressure;Samples;Min_cycle;Max_cycle;Signal;HPM_P1;HPM_P2
2024/01/08 00:01:39;;;;;;;3.60;2.75;;;;;;;;;;5135650;27;20039;-80
2024/01/08 00:04:05;;;;;;;4.22;3.25;;;;;;;;;;5118108;27;20451;-79
2024/01/08 00:06:32;;;;;;;3.22;2.38;;;;;;;;;;5136209;27;20080;-79
2024/01/08 00:08:59;;;;;;;3.33;2.88;;;;;;;;;;5136344;27;20043;-79
2024/01/08 00:11:25;;;;;;;6.63;3.70;;;;;;;;;;5136270;27;20051;-79
2024/01/08 00:13:51;;;;;;;3.97;3.08;;;;;;;;;;5136662;27;20086;-79
2024/01/08 00:16:17;;;;;;;4.35;3.53;;;;;;;;;;5118044;27;20043;-79
2024/01/08 00:18:43;;;;;;;4.30;3.22;;;;;;;;;;5117716;27;20043;-79
2024/01/08 00:21:09;;;;;;;5.53;3.40;;;;;;;;;;5117997;27;20047;-79
2024/01/08 00:23:37;;;;;;;4.07;3.58;;;;;;;;;;5100982;27;20046;-80
2024/01/08 00:26:03;;;;;;;5.05;3.88;;;;;;;;;;5135410;27;20088;-79
2024/01/08 00:28:29;;;;;;;4.70;3.42;;;;;;;;;;5135918;27;20050;-79
2024/01/08 00:30:55;;;;;;;4.50;3.33;;;;;;;;;;5135862;27;20047;-79
2024/01/08 00:33:21;;;;;;;4.63;3.70;;;;;;;;;;5117508;27;20380;-79
2024/01/08 00:35:47;;;;;;;4.80;3.55;;;;;;;;;;5135741;27;20047;-79
2024/01/08 00:38:13;;;;;;;4.22;3.30;;;;;;;;;;5135738;27;20046;-79
2024/01/08 00:40:39;;;;;;;5.65;3.40;;;;;;;;;;5135426;27;20047;-80
2024/01/08 00:43:06;;;;;;;4.60;3.67;;;;;;;;;;5117481;27;20390;-79
2024/01/08 00:45:32;;;;;;;4.15;3.25;;;;;;;;;;5135220;27;20055;-79
2024/01/08 00:47:58;;;;;;;5.60;3.05;;;;;;;;;;5117300;27;20083;-79
2024/01/08 00:50:26;;;;;;;5.82;3.72;;;;;;;;;;5135384;27;20047;-79
2024/01/08 00:52:52;;;;;;;5.53;3.85;;;;;;;;;;5135398;27;20122;-80
2024/01/08 00:55:18;;;;;;;5.93;4.03;;;;;;;;;;5134974;27;20039;-80
2024/01/08 00:57:44;;;;;;;5.22;3.67;;;;;;;;;;5116473;28;20039;-80
2024/01/08 01:00:10;;;;;;;6.80;3.58;;;;;;;;;;5117070;27;20065;-79
2024/01/08 01:02:38;;;;;;;4.85;3.67;;;;;;;;;;5100291;27;20039;-80
2024/01/08 01:05:04;;;;;;;6.00;3.67;;;;;;;;;;5100482;27;20047;-80
2024/01/08 01:07:30;;;;;;;6.78;4.15;;;;;;;;;;5116713;27;20088;-80
2024/01/08 01:09:56;;;;;;;6.40;3.63;;;;;;;;;;5135061;27;20047;-80
2024/01/08 01:12:23;;;;;;;4.47;2.72;;;;;;;;;;5117048;27;20134;-80
2024/01/08 01:14:49;;;;;;;6.85;3.95;;;;;;;;;;5135069;27;20046;-80
2024/01/08 01:17:15;;;;;;;6.82;3.53;;;;;;;;;;5116287;27;20506;-80
2024/01/08 01:19:41;;;;;;;6.93;3.67;;;;;;;;;;5134710;27;20510;-80
2024/01/08 01:22:07;;;;;;;4.88;3.88;;;;;;;;;;5117164;27;20582;-80
2024/01/08 01:24:33;;;;;;;4.50;2.88;;;;;;;;;;5134447;27;20524;-80
2024/01/08 01:26:59;;;;;;;5.40;3.97;;;;;;;;;;5116660;27;20452;-80
2024/01/08 01:29:25;;;;;;;3.70;3.15;;;;;;;;;;5134908;27;20465;-80
2024/01/08 01:31:51;;;;;;;7.18;3.95;;;;;;;;;;5116669;27;20099;-80
2024/01/08 01:34:20;;;;;;;6.78;3.75;;;;;;;;;;5116479;27;20445;-80
2024/01/08 01:36:47;;;;;;;4.53;3.22;;;;;;;;;;5134427;27;20483;-80
2024/01/08 01:39:13;;;;;;;5.78;3.67;;;;;;;;;;5134743;27;20062;-80
2024/01/08 01:41:39;;;;;;;5.88;3.45;;;;;;;;;;5134692;27;20135;-80
2024/01/08 01:44:05;;;;;;;4.53;3.05;;;;;;;;;;5134652;27;20050;-80
2024/01/08 01:46:47;;;;;;;4.80;3.28;;;;;;;;;;5134438;27;20061;-80
2024/01/08 01:49:14;;;;;;;4.65;3.28;;;;;;;;;;5116225;28;20039;-79
2024/01/08 01:51:44;;;;;;;4.72;2.85;;;;;;;;;;5116319;28;20054;-80
2024/01/08 01:54:12;;;;;;;7.38;3.95;;;;;;;;;;5099428;28;20051;-80
2024/01/08 01:56:38;;;;;;;4.28;3.03;;;;;;;;;;5116093;28;20043;-80
2024/01/08 01:59:04;;;;;;;5.65;3.60;;;;;;;;;;5134552;28;20039;-80
2024/01/08 02:01:31;;;;;;;5.05;3.10;;;;;;;;;;5135363;28;20043;-80
2024/01/08 02:03:57;;;;;;;6.90;3.90;;;;;;;;;;5116438;28;20061;-80
2024/01/08 02:06:24;;;;;;;4.45;3.38;;;;;;;;;;5116259;28;20043;-80
2024/01/08 02:08:54;;;;;;;5.93;4.22;;;;;;;;;;5134667;27;20060;-80
2024/01/08 02:11:20;;;;;;;7.38;4.25;;;;;;;;;;5120334;27;20130;-80
2024/01/08 02:13:47;;;;;;;6.43;4.60;;;;;;;;;;5138440;27;20047;-80
2024/01/08 02:16:13;;;;;;;5.30;4.32;;;;;;;;;;5120259;27;20495;-80
2024/01/08 02:18:39;;;;;;;6.07;4.18;;;;;;;;;;5120488;27;20047;-80
2024/01/08 02:21:05;;;;;;;7.22;3.92;;;;;;;;;;5138513;27;20054;-80
2024/01/08 02:23:31;;;;;;;6.70;4.35;;;;;;;;;;5120100;27;20086;-80
2024/01/08 02:25:58;;;;;;;6.32;4.65;;;;;;;;;;5137674;27;20096;-80
2024/01/08 02:28:24;;;;;;;7.18;4.63;;;;;;;;;;5119946;27;20081;-80
2024/01/08 02:30:50;;;;;;;7.07;4.32;;;;;;;;;;5120097;27;20039;-80
2024/01/08 02:33:16;;;;;;;6.93;4.00;;;;;;;;;;5138281;27;20043;-80
2024/01/08 02:35:42;;;;;;;5.90;3.85;;;;;;;;;;5138544;27;20047;-80
2024/01/08 02:38:08;;;;;;;8.15;5.60;;;;;;;;;;5137954;27;20043;-79
2024/01/08 02:40:34;;;;;;;6.65;5.47;;;;;;;;;;5138146;27;20046;-79
2024/01/08 02:43:01;;;;;;;8.02;4.32;;;;;;;;;;5119998;27;20153;-80
2024/01/08 02:45:27;;;;;;;8.02;5.03;;;;;;;;;;5137868;27;20406;-80
2024/01/08 02:47:53;;;;;;;8.35;5.18;;;;;;;;;;5137855;27;20066;-80
2024/01/08 02:50:19;;;;;;;6.47;5.07;;;;;;;;;;5119855;27;20050;-80
2024/01/08 02:52:45;;;;;;;4.18;3.28;;;;;;;;;;5137945;27;20058;-80
2024/01/08 02:55:11;;;;;;;8.85;4.88;;;;;;;;;;5119331;27;20509;-80
2024/01/08 02:57:37;;;;;;;6.28;5.38;;;;;;;;;;5119420;27;20126;-80
2024/01/08 03:00:05;;;;;;;6.43;4.80;;;;;;;;;;5137730;27;20047;-80
2024/01/08 03:02:31;;;;;;;7.32;4.88;;;;;;;;;;5115870;28;20054;-80
2024/01/08 03:04:57;;;;;;;8.48;5.45;;;;;;;;;;5117302;28;20043;-80
2024/01/08 03:07:23;;;;;;;4.60;3.65;;;;;;;;;;5116878;28;20044;-80
2024/01/08 03:09:49;;;;;;;8.43;4.75;;;;;;;;;;5098832;28;20082;-80
2024/01/08 03:12:16;;;;;;;4.68;2.83;;;;;;;;;;5098762;28;20127;-80
2024/01/08 03:14:43;;;;;;;8.80;5.65;;;;;;;;;;5098841;28;20501;-80
2024/01/08 03:17:09;;;;;;;8.00;5.68;;;;;;;;;;5098890;28;20491;-80
2024/01/08 03:19:35;;;;;;;10.73;5.82;;;;;;;;;;5098830;28;20086;-79
2024/01/08 03:22:01;;;;;;;8.15;5.63;;;;;;;;;;5116019;28;20058;-79
2024/01/08 03:24:28;;;;;;;8.40;5.15;;;;;;;;;;5098717;28;20122;-80
2024/01/08 03:26:54;;;;;;;8.90;5.43;;;;;;;;;;5116099;28;20043;-80
2024/01/08 03:29:20;;;;;;;8.65;5.60;;;;;;;;;;5099304;28;20070;-80
2024/01/08 03:31:46;;;;;;;6.05;3.83;;;;;;;;;;5117003;28;20051;-80
2024/01/08 03:34:14;;;;;;;8.00;5.53;;;;;;;;;;5098381;28;20101;-80
2024/01/08 03:36:44;;;;;;;7.25;4.82;;;;;;;;;;5098453;28;20499;-80
2024/01/08 03:39:12;;;;;;;7.82;5.78;;;;;;;;;;5116289;28;20048;-80
2024/01/08 03:41:39;;;;;;;5.32;4.13;;;;;;;;;;5116451;28;20048;-80
2024/01/08 03:44:05;;;;;;;7.30;5.18;;;;;;;;;;5098129;28;20495;-80
2024/01/08 03:46:31;;;;;;;8.30;4.53;;;;;;;;;;5097444;28;20518;-79
2024/01/08 03:48:58;;;;;;;7.65;3.80;;;;;;;;;;5097983;28;20134;-80
2024/01/08 03:51:24;;;;;;;6.45;4.57;;;;;;;;;;5098223;28;20043;-80
2024/01/08 03:53:50;;;;;;;6.88;4.55;;;;;;;;;;5116120;28;20079;-80
2024/01/08 03:56:16;;;;;;;5.53;4.18;;;;;;;;;;5097550;28;20091;-80
2024/01/08 03:58:42;;;;;;;5.97;4.68;;;;;;;;;;5123708;27;20051;-80
2024/01/08 04:01:08;;;;;;;7.00;4.95;;;;;;;;;;5117857;27;20051;-80
2024/01/08 04:03:34;;;;;;;9.65;4.53;;;;;;;;;;5118228;27;20531;-80
2024/01/08 04:06:00;;;;;;;5.60;4.45;;;;;;;;;;5118121;27;20562;-80
2024/01/08 04:08:26;;;;;;;7.30;4.25;;;;;;;;;;5136326;27;20507;-80
2024/01/08 04:10:52;;;;;;;5.32;3.75;;;;;;;;;;5118085;27;20047;-80
2024/01/08 04:13:18;;;;;;;7.90;4.90;;;;;;;;;;5136249;27;20080;-80
2024/01/08 04:15:45;;;;;;;7.25;4.70;;;;;;;;;;5118062;27;20130;-80
2024/01/08 04:18:11;;;;;;;6.72;4.40;;;;;;;;;;5118058;27;20062;-80
2024/01/08 04:20:37;;;;;;;7.35;4.90;;;;;;;;;;5136013;27;20049;-80
2024/01/08 04:23:03;;;;;;;6.18;4.35;;;;;;;;;;5136113;27;20051;-80
2024/01/08 04:25:29;;;;;;;5.57;4.53;;;;;;;;;;5135699;27;20043;-79
2024/01/08 04:27:55;;;;;;;5.32;3.80;;;;;;;;;;5118080;27;20035;-80
2024/01/08 04:30:21;;;;;;;8.27;4.95;;;;;;;;;;5117671;27;20047;-80
2024/01/08 04:32:47;;;;;;;6.28;4.15;;;;;;;;;;5116524;28;20055;-80
2024/01/08 04:35:13;;;;;;;7.72;4.70;;;;;;;;;;5136488;27;20122;-79
2024/01/08 04:37:40;;;;;;;5.40;4.55;;;;;;;;;;5135681;27;20039;-80
2024/01/08 04:40:07;;;;;;;4.10;3.22;;;;;;;;;;5136074;27;20394;-80
2024/01/08 04:42:33;;;;;;;7.65;3.65;;;;;;;;;;5135655;27;20100;-80
2024/01/08 04:44:59;;;;;;;4.80;3.70;;;;;;;;;;5117626;27;20051;-80
2024/01/08 04:47:25;;;;;;;4.07;3.67;;;;;;;;;;5135670;27;20051;-80
2024/01/08 04:49:51;;;;;;;6.53;3.58;;;;;;;;;;5118017;27;20059;-79
2024/01/08 04:52:17;;;;;;;6.57;3.42;;;;;;;;;;5117439;27;20043;-80
2024/01/08 04:54:43;;;;;;;3.90;3.22;;;;;;;;;;5100209;27;20043;-80
2024/01/08 04:57:10;;;;;;;4.55;3.15;;;;;;;;;;5135032;27;20176;-80
2024/01/08 04:59:40;;;;;;;3.47;2.80;;;;;;;;;;5135455;27;20062;-80
2024/01/08 05:02:06;;;;;;;3.88;3.30;;;;;;;;;;5100503;27;20043;-80
2024/01/08 05:04:32;;;;;;;4.90;3.65;;;;;;;;;;5135631;27;20054;-80
2024/01/08 05:06:58;;;;;;;4.47;3.25;;;;;;;;;;5099880;27;20039;-80
2024/01/08 05:09:24;;;;;;;4.75;3.53;;;;;;;;;;5117137;27;20050;-80
2024/01/08 05:11:50;;;;;;;3.90;3.10;;;;;;;;;;5117100;27;20054;-80
2024/01/08 05:14:16;;;;;;;5.13;2.88;;;;;;;;;;5116986;27;20078;-80
2024/01/08 05:16:42;;;;;;;4.22;2.72;;;;;;;;;;5116831;27;20470;-80
2024/01/08 05:19:08;;;;;;;3.92;2.75;;;;;;;;;;5117144;27;20043;-80
2024/01/08 05:21:34;;;;;;;3.92;2.95;;;;;;;;;;5117130;27;20086;-80
2024/01/08 05:24:00;;;;;;;3.35;2.85;;;;;;;;;;5135052;27;20047;-80
2024/01/08 05:26:26;;;;;;;3.53;3.00;;;;;;;;;;5134290;27;20050;-80
2024/01/08 05:28:52;;;;;;;3.97;3.47;;;;;;;;;;5135192;27;20043;-80
2024/01/08 05:31:21;;;;;;;3.88;3.15;;;;;;;;;;5135030;27;20129;-80
2024/01/08 05:33:47;;;;;;;5.88;3.45;;;;;;;;;;5134861;27;20448;-80
2024/01/08 05:36:13;;;;;;;6.80;3.60;;;;;;;;;;5134869;27;20039;-79
2024/01/08 05:38:39;;;;;;;4.38;3.63;;;;;;;;;;5134887;27;20054;-79
2024/01/08 05:41:05;;;;;;;5.35;3.17;;;;;;;;;;5099672;28;20035;-80
2024/01/08 05:43:37;;;;;;;4.75;3.70;;;;;;;;;;5115496;27;20043;-80
2024/01/08 05:46:04;;;;;;;4.07;2.60;;;;;;;;;;5115457;28;20047;-79
2024/01/08 05:48:36;;;;;;;6.38;4.18;;;;;;;;;;5134657;28;20036;-80
2024/01/08 05:51:03;;;;;;;4.53;3.75;;;;;;;;;;5134716;28;20047;-79
2024/01/08 05:53:29;;;;;;;6.07;3.42;;;;;;;;;;5134663;28;20402;-79
2024/01/08 05:55:57;;;;;;;5.90;3.28;;;;;;;;;;5134209;28;20103;-80
2024/01/08 05:58:23;;;;;;;4.88;3.72;;;;;;;;;;5116250;28;20047;-79
2024/01/08 06:00:49;;;;;;;5.90;3.90;;;;;;;;;;5134564;28;20039;-80
2024/01/08 06:03:15;;;;;;;6.05;3.80;;;;;;;;;;5134615;28;20070;-79
2024/01/08 06:05:41;;;;;;;6.68;3.78;;;;;;;;;;5116109;28;20116;-79
2024/01/08 06:08:08;;;;;;;5.85;3.72;;;;;;;;;;5134455;28;20043;-79
2024/01/08 06:10:34;;;;;;;6.10;3.90;;;;;;;;;;5099739;28;20368;-79
2024/01/08 06:13:01;;;;;;;9.05;4.55;;;;;;;;;;5133965;28;20544;-79
2024/01/08 06:15:27;;;;;;;5.13;3.42;;;;;;;;;;5116835;28;20439;-79
2024/01/08 06:17:53;;;;;;;5.15;3.45;;;;;;;;;;5116347;28;20055;-79
2024/01/08 06:20:19;;;;;;;5.88;4.18;;;;;;;;;;5116364;28;20399;-79
2024/01/08 06:22:45;;;;;;;7.18;4.60;;;;;;;;;;5134411;28;20083;-79
2024/01/08 06:25:11;;;;;;;5.13;3.88;;;;;;;;;;5134157;28;20116;-79
2024/01/08 06:27:37;;;;;;;6.75;4.38;;;;;;;;;;5115140;28;20050;-80
2024/01/08 06:30:03;;;;;;;5.43;3.78;;;;;;;;;;5113482;28;20379;-81
2024/01/08 06:32:29;;;;;;;6.28;3.83;;;;;;;;;;5113695;28;20044;-80
2024/01/08 06:34:56;;;;;;;7.25;4.72;;;;;;;;;;5095761;28;20464;-80
2024/01/08 06:37:22;;;;;;;5.50;3.75;;;;;;;;;;5079287;28;20055;-80
2024/01/08 06:39:48;;;;;;;6.47;2.83;;;;;;;;;;5095619;28;20048;-79
2024/01/08 06:42:14;;;;;;;6.32;4.60;;;;;;;;;;5095420;28;20048;-79
2024/01/08 06:44:40;;;;;;;5.78;3.97;;;;;;;;;;5113218;28;20047;-79
2024/01/08 06:47:06;;;;;;;6.93;3.40;;;;;;;;;;5113721;28;20388;-79
2024/01/08 06:49:34;;;;;;;5.85;4.00;;;;;;;;;;5113592;28;20051;-79
2024/01/08 06:52:00;;;;;;;6.38;4.45;;;;;;;;;;5113334;28;20047;-79
2024/01/08 06:54:26;;;;;;;5.90;4.07;;;;;;;;;;5095248;28;20054;-79
2024/01/08 06:56:53;;;;;;;5.80;3.60;;;;;;;;;;5114808;28;20430;-80
2024/01/08 06:59:19;;;;;;;8.38;3.83;;;;;;;;;;5099068;28;20128;-79
2024/01/08 07:01:45;;;;;;;6.65;4.45;;;;;;;;;;5098891;28;20044;-79
2024/01/08 07:04:11;;;;;;;6.07;4.18;;;;;;;;;;5117108;28;20052;-80
2024/01/08 07:06:37;;;;;;;6.25;4.30;;;;;;;;;;5116728;28;20431;-79
2024/01/08 07:09:03;;;;;;;5.90;3.88;;;;;;;;;;5116965;28;20048;-80
2024/01/08 07:11:29;;;;;;;7.03;3.67;;;;;;;;;;5098986;28;20047;-79
2024/01/08 07:13:55;;;;;;;6.80;4.35;;;;;;;;;;5098914;28;20047;-79
2024/01/08 07:16:21;;;;;;;5.78;4.25;;;;;;;;;;5116821;28;20058;-79
2024/01/08 07:18:48;;;;;;;5.97;4.18;;;;;;;;;;5098527;28;20053;-79
2024/01/08 07:21:16;;;;;;;3.95;3.53;;;;;;;;;;5082030;28;20051;-80
2024/01/08 07:23:44;;;;;;;6.38;4.13;;;;;;;;;;5117097;28;20052;-79
2024/01/08 07:26:10;;;;;;;5.32;3.95;;;;;;;;;;5098276;28;20476;-79
2024/01/08 07:28:36;;;;;;;9.27;4.88;;;;;;;;;;5116683;28;20134;-79
2024/01/08 07:31:05;;;;;;;7.60;4.40;;;;;;;;;;5116747;28;20055;-80
2024/01/08 07:33:31;;;;;;;4.63;3.35;;;;;;;;;;5098612;28;20429;-79
2024/01/08 07:35:57;;;;;;;5.85;4.55;;;;;;;;;;5116514;28;20052;-79
2024/01/08 07:38:23;;;;;;;5.57;3.83;;;;;;;;;;5116386;28;20475;-79
2024/01/08 07:40:49;;;;;;;5.90;3.90;;;;;;;;;;5116451;28;20050;-79
2024/01/08 07:43:15;;;;;;;8.30;4.10;;;;;;;;;;5098721;28;20039;-79
2024/01/08 07:45:42;;;;;;;7.28;3.88;;;;;;;;;;5116382;28;20049;-79
2024/01/08 07:48:08;;;;;;;5.25;4.32;;;;;;;;;;5098367;28;20102;-79
2024/01/08 07:50:34;;;;;;;5.50;3.65;;;;;;;;;;5116221;28;20048;-79
2024/01/08 07:53:00;;;;;;;5.28;2.95;;;;;;;;;;5098452;28;20131;-79
2024/01/08 07:55:26;;;;;;;4.95;3.63;;;;;;;;;;5100745;28;20051;-79
2024/01/08 07:57:52;;;;;;;8.38;4.22;;;;;;;;;;5116008;28;20134;-79
2024/01/08 08:00:20;;;;;;;7.22;4.32;;;;;;;;;;5098128;28;20046;-79
2024/01/08 08:02:46;;;;;;;5.55;3.92;;;;;;;;;;5115966;28;20043;-79
2024/01/08 08:05:12;;;;;;;4.75;3.22;;;;;;;;;;5116276;28;20099;-79
2024/01/08 08:07:39;;;;;;;5.72;4.10;;;;;;;;;;5097477;28;20047;-79
2024/01/08 08:10:05;;;;;;;7.32;3.92;;;;;;;;;;5115759;28;20506;-79
2024/01/08 08:12:32;;;;;;;7.50;3.33;;;;;;;;;;5115487;28;20487;-79
2024/01/08 08:14:58;;;;;;;5.55;3.72;;;;;;;;;;5098011;28;20052;-79
2024/01/08 08:17:25;;;;;;;3.72;2.33;;;;;;;;;;5115843;28;20039;-79
2024/01/08 08:19:51;;;;;;;7.75;4.13;;;;;;;;;;5115678;28;20055;-79
2024/01/08 08:22:17;;;;;;;5.97;3.97;;;;;;;;;;5115788;28;20047;-78
2024/01/08 08:24:47;;;;;;;5.32;3.53;;;;;;;;;;5097507;28;20046;-79
2024/01/08 08:27:13;;;;;;;6.57;3.38;;;;;;;;;;5115067;28;20050;-79
2024/01/08 08:29:42;;;;;;;4.00;2.13;;;;;;;;;;5097356;28;20459;-79
2024/01/08 08:32:09;;;;;;;4.47;2.90;;;;;;;;;;5097470;28;20135;-79
2024/01/08 08:34:35;;;;;;;5.47;3.70;;;;;;;;;;5097281;28;20471;-79
2024/01/08 08:37:01;;;;;;;5.57;3.25;;;;;;;;;;5115404;28;20042;-79
2024/01/08 08:39:27;;;;;;;4.05;2.83;;;;;;;;;;5115204;28;20043;-79
2024/01/08 08:41:55;;;;;;;11.10;3.60;;;;;;;;;;5096977;28;20094;-79
2024/01/08 08:44:21;;;;;;;4.93;2.92;;;;;;;;;;5114760;28;20043;-79
2024/01/08 08:46:47;;;;;;;3.47;3.17;;;;;;;;;;5114962;28;20054;-79
2024/01/08 08:49:14;;;;;;;5.25;2.83;;;;;;;;;;5115193;28;20062;-79
2024/01/08 08:51:43;;;;;;;5.03;3.25;;;;;;;;;;5097021;28;20039;-79
2024/01/08 08:54:09;;;;;;;5.63;3.53;;;;;;;;;;5096807;28;20507;-78
2024/01/08 08:56:36;;;;;;;3.40;2.38;;;;;;;;;;5114539;28;20043;-79
2024/01/08 08:59:02;;;;;;;5.57;2.30;;;;;;;;;;5115194;28;20074;-79
2024/01/08 09:01:28;;;;;;;4.97;1.58;;;;;;;;;;5114797;28;20047;-79
2024/01/08 09:03:55;;;;;;;2.35;1.50;;;;;;;;;;5114687;28;20082;-79
2024/01/08 09:06:23;;;;;;;3.97;2.67;;;;;;;;;;5114442;28;20048;-78
2024/01/08 09:08:50;;;;;;;3.28;2.67;;;;;;;;;;5114749;28;20058;-79
2024/01/08 09:11:16;;;;;;;6.95;3.40;;;;;;;;;;5114695;28;20051;-79
2024/01/08 09:13:42;;;;;;;6.13;2.92;;;;;;;;;;5114122;28;20135;-79
2024/01/08 09:16:12;;;;;;;4.80;2.33;;;;;;;;;;5096407;28;20035;-79
2024/01/08 09:18:38;;;;;;;3.92;2.38;;;;;;;;;;5113859;28;20040;-79
2024/01/08 09:21:06;;;;;;;5.15;2.20;;;;;;;;;;5096446;28;20048;-79
2024/01/08 09:23:32;;;;;;;4.50;2.63;;;;;;;;;;5096391;28;20073;-79
2024/01/08 09:25:59;;;;;;;3.55;2.22;;;;;;;;;;5113984;28;20100;-79
2024/01/08 09:28:25;;;;;;;3.58;2.45;;;;;;;;;;5114391;28;20087;-79
2024/01/08 09:30:52;;;;;;;5.55;2.53;;;;;;;;;;5114082;28;20043;-79
2024/01/08 09:33:18;;;;;;;3.03;2.55;;;;;;;;;;5114199;28;20044;-79
2024/01/08 09:35:44;;;;;;;3.28;2.67;;;;;;;;;;5114440;28;20040;-79
2024/01/08 09:38:10;;;;;;;7.18;3.00;;;;;;;;;;5096036;28;20084;-79
2024/01/08 09:40:37;;;;;;;4.25;2.90;;;;;;;;;;5079553;28;20055;-79
2024/01/08 09:43:06;;;;;;;3.78;1.95;;;;;;;;;;5114241;28;20058;-78
2024/01/08 09:45:32;;;;;;;3.65;2.80;;;;;;;;;;5096025;28;20051;-79
2024/01/08 09:47:59;;;;;;;6.15;4.10;;;;;;;;;;5079199;28;20077;-79
2024/01/08 09:50:28;;;;;;;4.57;3.63;;;;;;;;;;5114703;28;20161;-79
2024/01/08 09:52:55;;;;;;;4.00;1.83;;;;;;;;;;5096149;28;20474;-79
2024/01/08 09:55:22;;;;;;;3.25;2.67;;;;;;;;;;5113641;28;20055;-79
2024/01/08 09:57:48;;;;;;;3.00;2.17;;;;;;;;;;5095519;28;20079;-79
2024/01/08 10:00:14;;;;;;;3.53;2.42;;;;;;;;;;5079270;28;20047;-79
2024/01/08 10:02:41;;;;;;;3.85;3.13;;;;;;;;;;5114286;28;20043;-78
2024/01/08 10:05:07;;;;;;;4.63;2.33;;;;;;;;;;5114187;28;20040;-78
2024/01/08 10:07:35;;;;;;;3.17;1.92;;;;;;;;;;5113876;28;20086;-78
2024/01/08 10:10:01;;;;;;;3.42;2.33;;;;;;;;;;5113971;28;20480;-78
2024/01/08 10:12:31;;;;;;;5.38;3.28;;;;;;;;;;5096002;28;20047;-79
2024/01/08 10:14:57;;;;;;;4.38;2.08;;;;;;;;;;5113812;28;20093;-79
2024/01/08 10:17:23;;;;;;;3.28;2.22;;;;;;;;;;5113901;28;20048;-78
2024/01/08 10:19:49;;;;;;;2.83;1.15;;;;;;;;;;5113873;28;20391;-78
2024/01/08 10:22:16;;;;;;;2.80;2.05;;;;;;;;;;5113797;28;20156;-78
2024/01/08 10:24:46;;;;;;;3.53;1.27;;;;;;;;;;5095643;28;20073;-78
2024/01/08 10:27:12;;;;;;;4.32;2.33;;;;;;;;;;5113019;28;20534;-78
2024/01/08 10:29:39;;;;;;;3.13;1.70;;;;;;;;;;5113605;28;20476;-78
2024/01/08 10:32:06;;;;;;;4.85;1.58;;;;;;;;;;5115758;28;20051;-78
2024/01/08 10:34:33;;;;;;;2.65;1.70;;;;;;;;;;5117656;28;20055;-78
2024/01/08 10:36:59;;;;;;;3.05;2.08;;;;;;;;;;5117647;28;20047;-78
2024/01/08 10:39:31;;;;;;;4.38;2.45;;;;;;;;;;5117587;28;20051;-78
2024/01/08 10:42:00;;;;;;;1.60;1.50;;;;;;;;;;5100224;28;20052;-78
2024/01/08 10:44:26;;;;;;;5.43;3.03;;;;;;;;;;5117523;28;20090;-78
2024/01/08 10:46:57;;;;;;;3.53;2.65;;;;;;;;;;5117470;28;20091;-78
2024/01/08 10:49:25;;;;;;;4.78;2.45;;;;;;;;;;5117750;28;20059;-78
2024/01/08 10:51:52;;;;;;;5.25;2.03;;;;;;;;;;5117441;28;20154;-78
2024/01/08 10:54:19;;;;;;;4.43;1.95;;;;;;;;;;5117283;28;20084;-78
2024/01/08 10:56:48;;;;;;;4.00;2.25;;;;;;;;;;5116541;28;20476;-78
2024/01/08 10:59:22;;;;;;;5.70;2.40;;;;;;;;;;5117227;28;20462;-78
2024/01/08 11:01:49;;;;;;;2.15;1.92;;;;;;;;;;5099670;28;20552;-78
2024/01/08 11:04:15;;;;;;;2.33;1.80;;;;;;;;;;5117262;28;20052;-78
2024/01/08 11:06:43;;;;;;;4.10;2.15;;;;;;;;;;5117047;28;20073;-78
2024/01/08 11:09:25;;;;;;;3.67;2.80;;;;;;;;;;5117015;28;20090;-78
2024/01/08 11:11:51;;;;;;;1.67;1.50;;;;;;;;;;5116966;28;20135;-78
2024/01/08 11:14:17;;;;;;;2.80;1.85;;;;;;;;;;5116625;28;20483;-78
2024/01/08 11:16:43;;;;;;;4.30;2.15;;;;;;;;;;5116939;28;20063;-79
2024/01/08 11:19:24;;;;;;;1.65;1.35;;;;;;;;;;5117020;28;20047;-79
2024/01/08 11:21:57;;;;;;;2.63;2.10;;;;;;;;;;5116796;28;20176;-79
2024/01/08 11:24:24;;;;;;;2.58;1.55;;;;;;;;;;5116835;28;20424;-78
2024/01/08 11:26:51;;;;;;;3.08;1.73;;;;;;;;;;5116485;28;20047;-78
2024/01/08 11:29:18;;;;;;;2.05;1.75;;;;;;;;;;5116683;28;20057;-79
2024/01/08 11:31:50;;;;;;;2.05;1.15;;;;;;;;;;5116769;28;20221;-79
2024/01/08 11:34:35;;;;;;;3.67;1.88;;;;;;;;;;5116548;28;20073;-79
2024/01/08 11:37:21;;;;;;;2.05;1.50;;;;;;;;;;5116482;28;20043;-79
2024/01/08 11:39:48;;;;;;;2.22;0.90;;;;;;;;;;5098435;28;20067;-79
2024/01/08 11:42:15;;;;;;;4.47;1.77;;;;;;;;;;5115813;28;20055;-79
2024/01/08 11:44:41;;;;;;;1.88;1.65;;;;;;;;;;5116745;28;20055;-79
2024/01/08 11:47:07;;;;;;;3.00;1.67;;;;;;;;;;5116220;28;20052;-78
2024/01/08 11:49:33;;;;;;;3.45;1.90;;;;;;;;;;5098141;28;20059;-78
2024/01/08 11:52:04;;;;;;;2.47;1.63;;;;;;;;;;5098292;28;20048;-78
2024/01/08 11:54:30;;;;;;;2.53;2.03;;;;;;;;;;5116166;28;20090;-79
2024/01/08 11:56:57;;;;;;;2.65;1.55;;;;;;;;;;5116041;28;20048;-78
2024/01/08 11:59:33;;;;;;;2.28;1.65;;;;;;;;;;5116118;28;20092;-78
2024/01/08 12:02:09;;;;;;;1.63;1.45;;;;;;;;;;5116352;28;20130;-79
2024/01/08 12:04:35;;;;;;;3.28;2.03;;;;;;;;;;5116007;28;20047;-79
2024/01/08 12:07:01;;;;;;;3.63;2.30;;;;;;;;;;5115900;28;20123;-79
2024/01/08 12:09:33;;;;;;;2.72;1.73;;;;;;;;;;5115888;28;20073;-79
2024/01/08 12:12:03;;;;;;;3.00;1.55;;;;;;;;;;5097858;28;20090;-79
2024/01/08 12:14:29;;;;;;;3.78;1.80;;;;;;;;;;5116027;28;20399;-79
2024/01/08 12:16:55;;;;;;;3.15;1.90;;;;;;;;;;5115826;28;20048;-79
2024/01/08 12:19:21;;;;;;;5.75;1.80;;;;;;;;;;5115680;28;20091;-79
2024/01/08 12:21:47;;;;;;;2.60;1.38;;;;;;;;;;5115666;28;20532;-78
2024/01/08 12:24:13;;;;;;;4.32;2.08;;;;;;;;;;5115727;28;20047;-78
2024/01/08 12:26:41;;;;;;;2.17;1.35;;;;;;;;;;5097280;28;20043;-78
2024/01/08 12:29:08;;;;;;;5.22;4.72;;;;;;;;;;5115613;28;20050;-78
2024/01/08 12:31:35;;;;;;;3.72;1.73;;;;;;;;;;5115427;28;20050;-79
2024/01/08 12:34:01;;;;;;;2.42;1.90;;;;;;;;;;5097945;28;20181;-78
2024/01/08 12:36:27;;;;;;;5.20;2.38;;;;;;;;;;5115334;28;20047;-79
2024/01/08 12:38:54;;;;;;;3.78;2.75;;;;;;;;;;5097292;28;20052;-79
2024/01/08 12:41:21;;;;;;;3.42;2.47;;;;;;;;;;5096810;28;20120;-79
2024/01/08 12:43:47;;;;;;;5.38;2.55;;;;;;;;;;5097276;28;20128;-79
2024/01/08 12:46:13;;;;;;;1.70;1.42;;;;;;;;;;5096844;28;20125;-79
2024/01/08 12:48:39;;;;;;;2.83;1.75;;;;;;;;;;5114979;28;20135;-79
2024/01/08 12:51:09;;;;;;;2.28;1.33;;;;;;;;;;5097274;28;20097;-81
2024/01/08 12:53:35;;;;;;;4.15;1.70;;;;;;;;;;5107325;27;20046;-79
2024/01/08 12:56:01;;;;;;;4.40;1.90;;;;;;;;;;5135020;27;20051;-79
2024/01/08 12:58:28;;;;;;;2.60;1.75;;;;;;;;;;5135480;27;20078;-79
2024/01/08 13:00:54;;;;;;;3.05;1.77;;;;;;;;;;5117371;27;20390;-79
2024/01/08 13:03:20;;;;;;;2.58;1.67;;;;;;;;;;5135622;27;20117;-79
2024/01/08 13:05:46;;;;;;;3.83;1.65;;;;;;;;;;5135286;27;20047;-79
2024/01/08 13:08:12;;;;;;;3.33;1.30;;;;;;;;;;5135245;27;20039;-79
2024/01/08 13:10:38;;;;;;;3.15;1.77;;;;;;;;;;5135280;27;20394;-79
2024/01/08 13:13:04;;;;;;;2.75;2.03;;;;;;;;;;5117307;27;20047;-79
2024/01/08 13:15:30;;;;;;;2.15;1.42;;;;;;;;;;5135139;27;20050;-79
2024/01/08 13:17:56;;;;;;;2.70;1.77;;;;;;;;;;5117311;27;20057;-79
2024/01/08 13:20:22;;;;;;;4.07;1.63;;;;;;;;;;5116803;27;20051;-79
2024/01/08 13:22:48;;;;;;;2.08;1.35;;;;;;;;;;5117025;27;20100;-79
2024/01/08 13:25:14;;;;;;;2.75;1.48;;;;;;;;;;5135501;27;20201;-79
2024/01/08 13:27:41;;;;;;;2.50;1.65;;;;;;;;;;5116283;27;20563;-79
2024/01/08 13:30:08;;;;;;;3.58;2.33;;;;;;;;;;5116908;27;20047;-79
2024/01/08 13:32:34;;;;;;;1.88;1.52;;;;;;;;;;5134752;27;20058;-78
2024/01/08 13:35:00;;;;;;;3.78;2.25;;;;;;;;;;5116573;27;20090;-78
2024/01/08 13:37:26;;;;;;;5.32;1.92;;;;;;;;;;5116620;27;20159;-79
2024/01/08 13:39:52;;;;;;;3.33;2.15;;;;;;;;;;5116783;27;20043;-80
2024/01/08 13:42:18;;;;;;;3.97;2.20;;;;;;;;;;5134829;27;20050;-81
2024/01/08 13:44:44;;;;;;;3.10;1.45;;;;;;;;;;5116709;28;20054;-82
2024/01/08 13:47:11;;;;;;;3.30;3.00;;;;;;;;;;5115961;28;20059;-81
2024/01/08 13:49:37;;;;;;;3.88;2.40;;;;;;;;;;5099780;28;20039;-80
2024/01/08 13:52:03;;;;;;;2.80;2.25;;;;;;;;;;5134714;27;20043;-80
2024/01/08 13:54:29;;;;;;;3.75;2.33;;;;;;;;;;5134778;28;20046;-81
2024/01/08 13:56:55;;;;;;;3.63;2.13;;;;;;;;;;5116261;28;20039;-79
2024/01/08 13:59:23;;;;;;;2.80;2.20;;;;;;;;;;5134673;28;20065;-81
2024/01/08 14:01:49;;;;;;;3.22;2.33;;;;;;;;;;5134490;28;20509;-81
2024/01/08 14:04:15;;;;;;;3.15;2.33;;;;;;;;;;5119585;28;20054;-80
2024/01/08 14:06:41;;;;;;;2.72;2.17;;;;;;;;;;5082417;28;20140;-80
2024/01/08 14:09:07;;;;;;;4.57;2.55;;;;;;;;;;5118748;27;20051;-80
2024/01/08 14:11:33;;;;;;;3.83;2.08;;;;;;;;;;5120634;27;20078;-80
2024/01/08 14:13:59;;;;;;;4.45;2.67;;;;;;;;;;5120570;27;20502;-81
2024/01/08 14:16:25;;;;;;;5.07;3.15;;;;;;;;;;5120544;27;20121;-80
2024/01/08 14:18:51;;;;;;;3.17;2.10;;;;;;;;;;5138663;27;20082;-80
2024/01/08 14:21:17;;;;;;;3.95;1.70;;;;;;;;;;5120548;27;20406;-79
2024/01/08 14:23:43;;;;;;;2.70;2.05;;;;;;;;;;5121205;27;20051;-80
2024/01/08 14:26:09;;;;;;;3.47;2.92;;;;;;;;;;5119960;27;20043;-79
2024/01/08 14:28:35;;;;;;;7.68;2.92;;;;;;;;;;5120377;27;20040;-80
2024/01/08 14:31:01;;;;;;;2.80;2.13;;;;;;;;;;5120514;27;20054;-81
2024/01/08 14:33:28;;;;;;;2.60;2.05;;;;;;;;;;5120308;27;20050;-80
2024/01/08 14:35:54;;;;;;;4.80;2.50;;;;;;;;;;5138283;27;20065;-80
2024/01/08 14:38:20;;;;;;;4.07;2.35;;;;;;;;;;5120179;27;20083;-80
2024/01/08 14:40:48;;;;;;;3.90;3.03;;;;;;;;;;5120095;27;20104;-80